sensor_id;sensor_type;location;lat;lon;timestamp;P1;durP1;ratioP1;P2;durP2;ratioP2
57832;SDS011;43667;53.036;6.740;2022-10-16T00:01:47;11.73;;;2.63;;
57832;SDS011;43667;53.036;6.740;2022-10-16T00:04:12;6.35;;;1.63;;
57832;SDS011;43667;53.036;6.740;2022-10-16T00:06:38;8.15;;;2.15;;
57832;SDS011;43667;53.036;6.740;2022-10-16T00:09:04;8.70;;;2.20;;
57832;SDS011;43667;53.036;6.740;2022-10-16T00:11:35;6.50;;;2.08;;
57832;SDS011;43667;53.036;6.740;2022-10-16T00:14:03;8.80;;;1.95;;
57832;SDS011;43667;53.036;6.740;2022-10-16T00:16:32;11.50;;;2.55;;
57832;SDS011;43667;53.036;6.740;2022-10-16T00:18:59;7.57;;;2.25;;
57832;SDS011;43667;53.036;6.740;2022-10-16T00:21:25;8.20;;;1.98;;
57832;SDS011;43667;53.036;6.740;2022-10-16T00:23:57;14.02;;;2.17;;
57832;SDS011;43667;53.036;6.740;2022-10-16T00:26:24;15.13;;;2.78;;
57832;SDS011;43667;53.036;6.740;2022-10-16T00:28:53;6.95;;;2.28;;
57832;SDS011;43667;53.036;6.740;2022-10-16T00:31:19;12.73;;;2.38;;
57832;SDS011;43667;53.036;6.740;2022-10-16T00:33:46;9.07;;;2.17;;
57832;SDS011;43667;53.036;6.740;2022-10-16T00:36:13;8.50;;;1.75;;
57832;SDS011;43667;53.036;6.740;2022-10-16T00:38:41;10.48;;;1.80;;
57832;SDS011;43667;53.036;6.740;2022-10-16T00:41:07;9.10;;;1.75;;
57832;SDS011;43667;53.036;6.740;2022-10-16T00:43:43;7.90;;;1.95;;
57832;SDS011;43667;53.036;6.740;2022-10-16T00:46:18;7.97;;;2.20;;
57832;SDS011;43667;53.036;6.740;2022-10-16T00:48:53;13.68;;;2.67;;
57832;SDS011;43667;53.036;6.740;2022-10-16T00:51:28;6.68;;;2.20;;
57832;SDS011;43667;53.036;6.740;2022-10-16T00:53:58;9.82;;;2.33;;
57832;SDS011;43667;53.036;6.740;2022-10-16T00:56:24;8.95;;;1.85;;
57832;SDS011;43667;53.036;6.740;2022-10-16T00:58:50;6.80;;;1.75;;
57832;SDS011;43667;53.036;6.740;2022-10-16T01:01:16;7.25;;;2.15;;
57832;SDS011;43667;53.036;6.740;2022-10-16T01:03:42;10.50;;;1.92;;
57832;SDS011;43667;53.036;6.740;2022-10-16T01:11:33;6.28;;;2.08;;
57832;SDS011;43667;53.036;6.740;2022-10-16T01:14:22;5.20;;;1.65;;
57832;SDS011;43667;53.036;6.740;2022-10-16T01:17:56;6.50;;;1.47;;
57832;SDS011;43667;53.036;6.740;2022-10-16T01:20:12;7.18;;;1.52;;
57832;SDS011;43667;53.036;6.740;2022-10-16T01:22:56;7.28;;;1.63;;
57832;SDS011;43667;53.036;6.740;2022-10-16T01:28:22;8.68;;;1.75;;
57832;SDS011;43667;53.036;6.740;2022-10-16T01:30:52;9.35;;;1.80;;
57832;SDS011;43667;53.036;6.740;2022-10-16T01:33:24;9.77;;;1.63;;
57832;SDS011;43667;53.036;6.740;2022-10-16T01:35:54;9.70;;;1.88;;
57832;SDS011;43667;53.036;6.740;2022-10-16T01:38:36;7.60;;;2.28;;
57832;SDS011;43667;53.036;6.740;2022-10-16T01:41:14;8.90;;;2.33;;
57832;SDS011;43667;53.036;6.740;2022-10-16T01:43:46;7.63;;;1.85;;
57832;SDS011;43667;53.036;6.740;2022-10-16T01:46:18;7.40;;;1.55;;
57832;SDS011;43667;53.036;6.740;2022-10-16T01:48:46;5.85;;;1.55;;
57832;SDS011;43667;53.036;6.740;2022-10-16T01:51:13;9.00;;;1.23;;
57832;SDS011;43667;53.036;6.740;2022-10-16T01:53:41;7.40;;;1.70;;
57832;SDS011;43667;53.036;6.740;2022-10-16T01:56:10;7.75;;;1.17;;
57832;SDS011;43667;53.036;6.740;2022-10-16T01:58:39;8.85;;;1.63;;
57832;SDS011;43667;53.036;6.740;2022-10-16T02:01:09;7.80;;;2.25;;
57832;SDS011;43667;53.036;6.740;2022-10-16T02:03:37;6.57;;;1.77;;
57832;SDS011;43667;53.036;6.740;2022-10-16T02:06:07;5.05;;;1.40;;
57832;SDS011;43667;53.036;6.740;2022-10-16T02:08:33;6.45;;;1.48;;
57832;SDS011;43667;53.036;6.740;2022-10-16T02:11:00;7.10;;;1.65;;
57832;SDS011;43667;53.036;6.740;2022-10-16T02:13:37;9.60;;;1.75;;
57832;SDS011;43667;53.036;6.740;2022-10-16T02:16:06;7.90;;;1.70;;
57832;SDS011;43667;53.036;6.740;2022-10-16T02:18:32;6.28;;;1.70;;
57832;SDS011;43667;53.036;6.740;2022-10-16T02:21:13;11.23;;;1.65;;
57832;SDS011;43667;53.036;6.740;2022-10-16T02:27:03;9.15;;;1.40;;
57832;SDS011;43667;53.036;6.740;2022-10-16T02:29:36;8.23;;;2.00;;
57832;SDS011;43667;53.036;6.740;2022-10-16T02:32:06;7.00;;;1.60;;
57832;SDS011;43667;53.036;6.740;2022-10-16T02:34:33;9.40;;;2.05;;
57832;SDS011;43667;53.036;6.740;2022-10-16T02:37:00;4.88;;;1.67;;
57832;SDS011;43667;53.036;6.740;2022-10-16T02:39:28;7.85;;;1.60;;
57832;SDS011;43667;53.036;6.740;2022-10-16T02:41:55;7.80;;;1.77;;
57832;SDS011;43667;53.036;6.740;2022-10-16T02:44:20;9.45;;;1.65;;
57832;SDS011;43667;53.036;6.740;2022-10-16T02:46:46;4.93;;;1.80;;
57832;SDS011;43667;53.036;6.740;2022-10-16T02:49:11;3.95;;;1.35;;
57832;SDS011;43667;53.036;6.740;2022-10-16T02:51:37;9.25;;;2.25;;
57832;SDS011;43667;53.036;6.740;2022-10-16T02:54:03;7.35;;;1.98;;
57832;SDS011;43667;53.036;6.740;2022-10-16T02:56:29;9.70;;;1.63;;
57832;SDS011;43667;53.036;6.740;2022-10-16T02:58:55;7.43;;;1.70;;
57832;SDS011;43667;53.036;6.740;2022-10-16T03:01:21;7.70;;;1.95;;
57832;SDS011;43667;53.036;6.740;2022-10-16T03:03:47;6.60;;;2.03;;
57832;SDS011;43667;53.036;6.740;2022-10-16T03:06:12;12.35;;;2.00;;
57832;SDS011;43667;53.036;6.740;2022-10-16T03:08:38;4.78;;;1.60;;
57832;SDS011;43667;53.036;6.740;2022-10-16T03:11:03;5.43;;;1.90;;
57832;SDS011;43667;53.036;6.740;2022-10-16T03:13:29;7.40;;;1.60;;
57832;SDS011;43667;53.036;6.740;2022-10-16T03:15:55;8.18;;;1.63;;
57832;SDS011;43667;53.036;6.740;2022-10-16T03:18:21;7.50;;;1.90;;
57832;SDS011;43667;53.036;6.740;2022-10-16T03:20:46;9.85;;;1.73;;
57832;SDS011;43667;53.036;6.740;2022-10-16T03:23:12;8.98;;;1.88;;
57832;SDS011;43667;53.036;6.740;2022-10-16T03:25:38;6.18;;;2.05;;
57832;SDS011;43667;53.036;6.740;2022-10-16T03:28:04;6.03;;;2.13;;
57832;SDS011;43667;53.036;6.740;2022-10-16T03:30:29;8.15;;;2.30;;
57832;SDS011;43667;53.036;6.740;2022-10-16T03:32:55;3.25;;;1.60;;
57832;SDS011;43667;53.036;6.740;2022-10-16T03:35:21;4.20;;;1.40;;
57832;SDS011;43667;53.036;6.740;2022-10-16T03:37:47;5.93;;;1.80;;
57832;SDS011;43667;53.036;6.740;2022-10-16T03:40:13;5.78;;;1.73;;
57832;SDS011;43667;53.036;6.740;2022-10-16T03:42:39;5.43;;;1.67;;
57832;SDS011;43667;53.036;6.740;2022-10-16T03:45:04;4.95;;;1.40;;
57832;SDS011;43667;53.036;6.740;2022-10-16T03:47:30;7.07;;;1.70;;
57832;SDS011;43667;53.036;6.740;2022-10-16T03:49:58;4.75;;;1.70;;
57832;SDS011;43667;53.036;6.740;2022-10-16T03:52:24;5.20;;;1.67;;
57832;SDS011;43667;53.036;6.740;2022-10-16T03:54:50;6.85;;;1.70;;
57832;SDS011;43667;53.036;6.740;2022-10-16T03:57:15;3.80;;;1.58;;
57832;SDS011;43667;53.036;6.740;2022-10-16T03:59:41;4.90;;;1.65;;
57832;SDS011;43667;53.036;6.740;2022-10-16T04:02:07;9.88;;;1.92;;
57832;SDS011;43667;53.036;6.740;2022-10-16T04:04:32;4.68;;;1.63;;
57832;SDS011;43667;53.036;6.740;2022-10-16T04:06:59;5.72;;;1.77;;
57832;SDS011;43667;53.036;6.740;2022-10-16T04:09:24;4.35;;;1.33;;
57832;SDS011;43667;53.036;6.740;2022-10-16T04:11:50;5.97;;;1.58;;
57832;SDS011;43667;53.036;6.740;2022-10-16T04:14:16;4.28;;;1.45;;
57832;SDS011;43667;53.036;6.740;2022-10-16T04:16:41;6.43;;;1.92;;
57832;SDS011;43667;53.036;6.740;2022-10-16T04:19:07;6.72;;;1.30;;
57832;SDS011;43667;53.036;6.740;2022-10-16T04:21:33;4.38;;;1.48;;
57832;SDS011;43667;53.036;6.740;2022-10-16T04:23:59;4.40;;;1.40;;
57832;SDS011;43667;53.036;6.740;2022-10-16T04:26:25;3.00;;;1.23;;
57832;SDS011;43667;53.036;6.740;2022-10-16T04:28:50;3.97;;;1.70;;
57832;SDS011;43667;53.036;6.740;2022-10-16T04:31:16;8.00;;;1.63;;
57832;SDS011;43667;53.036;6.740;2022-10-16T04:33:42;5.38;;;1.33;;
57832;SDS011;43667;53.036;6.740;2022-10-16T04:36:08;5.85;;;1.63;;
57832;SDS011;43667;53.036;6.740;2022-10-16T04:38:34;2.70;;;1.55;;
57832;SDS011;43667;53.036;6.740;2022-10-16T04:40:59;5.18;;;1.58;;
57832;SDS011;43667;53.036;6.740;2022-10-16T04:43:25;5.07;;;1.80;;
57832;SDS011;43667;53.036;6.740;2022-10-16T04:45:51;6.88;;;1.73;;
57832;SDS011;43667;53.036;6.740;2022-10-16T04:48:17;8.55;;;2.15;;
57832;SDS011;43667;53.036;6.740;2022-10-16T04:50:43;5.07;;;1.58;;
57832;SDS011;43667;53.036;6.740;2022-10-16T04:53:09;4.93;;;2.10;;
57832;SDS011;43667;53.036;6.740;2022-10-16T04:55:34;7.20;;;2.00;;
57832;SDS011;43667;53.036;6.740;2022-10-16T04:58:00;6.00;;;2.03;;
57832;SDS011;43667;53.036;6.740;2022-10-16T05:00:26;7.03;;;2.22;;
57832;SDS011;43667;53.036;6.740;2022-10-16T05:02:51;4.47;;;2.00;;
57832;SDS011;43667;53.036;6.740;2022-10-16T05:05:17;4.10;;;2.00;;
57832;SDS011;43667;53.036;6.740;2022-10-16T05:07:44;4.28;;;1.90;;
57832;SDS011;43667;53.036;6.740;2022-10-16T05:10:11;5.25;;;2.22;;
57832;SDS011;43667;53.036;6.740;2022-10-16T05:12:36;5.90;;;2.28;;
57832;SDS011;43667;53.036;6.740;2022-10-16T05:15:02;7.03;;;2.03;;
57832;SDS011;43667;53.036;6.740;2022-10-16T05:17:28;6.45;;;2.10;;
57832;SDS011;43667;53.036;6.740;2022-10-16T05:19:53;6.60;;;2.20;;
57832;SDS011;43667;53.036;6.740;2022-10-16T05:22:19;5.22;;;2.15;;
57832;SDS011;43667;53.036;6.740;2022-10-16T05:24:45;5.53;;;2.15;;
57832;SDS011;43667;53.036;6.740;2022-10-16T05:27:10;6.63;;;2.25;;
57832;SDS011;43667;53.036;6.740;2022-10-16T05:29:43;7.82;;;2.33;;
57832;SDS011;43667;53.036;6.740;2022-10-16T05:32:13;5.82;;;2.30;;
57832;SDS011;43667;53.036;6.740;2022-10-16T05:34:40;7.75;;;2.63;;
57832;SDS011;43667;53.036;6.740;2022-10-16T05:37:05;6.40;;;1.98;;
57832;SDS011;43667;53.036;6.740;2022-10-16T05:39:31;8.73;;;2.70;;
57832;SDS011;43667;53.036;6.740;2022-10-16T05:41:57;6.50;;;2.38;;
57832;SDS011;43667;53.036;6.740;2022-10-16T05:44:22;7.38;;;2.22;;
57832;SDS011;43667;53.036;6.740;2022-10-16T05:46:48;6.10;;;2.58;;
57832;SDS011;43667;53.036;6.740;2022-10-16T05:49:14;5.55;;;2.30;;
57832;SDS011;43667;53.036;6.740;2022-10-16T05:51:39;8.13;;;2.38;;
57832;SDS011;43667;53.036;6.740;2022-10-16T05:54:06;5.05;;;2.42;;
57832;SDS011;43667;53.036;6.740;2022-10-16T05:56:31;4.00;;;2.17;;
57832;SDS011;43667;53.036;6.740;2022-10-16T05:58:57;6.47;;;2.65;;
57832;SDS011;43667;53.036;6.740;2022-10-16T06:01:22;5.55;;;2.65;;
57832;SDS011;43667;53.036;6.740;2022-10-16T06:03:49;6.72;;;2.55;;
57832;SDS011;43667;53.036;6.740;2022-10-16T06:06:17;8.40;;;2.78;;
57832;SDS011;43667;53.036;6.740;2022-10-16T06:08:48;6.32;;;2.70;;
57832;SDS011;43667;53.036;6.740;2022-10-16T06:11:32;7.47;;;2.80;;
57832;SDS011;43667;53.036;6.740;2022-10-16T06:13:59;6.10;;;2.58;;
57832;SDS011;43667;53.036;6.740;2022-10-16T06:18:58;6.40;;;2.25;;
57832;SDS011;43667;53.036;6.740;2022-10-16T06:21:27;5.90;;;2.50;;
57832;SDS011;43667;53.036;6.740;2022-10-16T06:23:54;3.95;;;2.80;;
57832;SDS011;43667;53.036;6.740;2022-10-16T06:26:22;7.40;;;2.78;;
57832;SDS011;43667;53.036;6.740;2022-10-16T06:28:49;5.82;;;2.50;;
57832;SDS011;43667;53.036;6.740;2022-10-16T06:31:15;6.40;;;2.60;;
57832;SDS011;43667;53.036;6.740;2022-10-16T06:33:42;5.50;;;2.30;;
57832;SDS011;43667;53.036;6.740;2022-10-16T06:36:09;5.22;;;2.40;;
57832;SDS011;43667;53.036;6.740;2022-10-16T06:38:36;6.78;;;2.40;;
57832;SDS011;43667;53.036;6.740;2022-10-16T06:41:03;6.57;;;2.70;;
57832;SDS011;43667;53.036;6.740;2022-10-16T06:43:30;3.72;;;2.33;;
57832;SDS011;43667;53.036;6.740;2022-10-16T06:45:57;8.50;;;2.40;;
57832;SDS011;43667;53.036;6.740;2022-10-16T06:48:24;5.95;;;2.30;;
57832;SDS011;43667;53.036;6.740;2022-10-16T06:51:01;6.93;;;2.22;;
57832;SDS011;43667;53.036;6.740;2022-10-16T06:53:31;6.53;;;2.20;;
57832;SDS011;43667;53.036;6.740;2022-10-16T06:56:06;8.45;;;2.10;;
57832;SDS011;43667;53.036;6.740;2022-10-16T06:58:35;4.63;;;1.65;;
57832;SDS011;43667;53.036;6.740;2022-10-16T07:01:01;7.80;;;2.33;;
57832;SDS011;43667;53.036;6.740;2022-10-16T07:03:26;8.15;;;2.05;;
57832;SDS011;43667;53.036;6.740;2022-10-16T07:05:52;10.68;;;2.42;;
57832;SDS011;43667;53.036;6.740;2022-10-16T07:08:17;9.18;;;2.58;;
57832;SDS011;43667;53.036;6.740;2022-10-16T07:10:43;5.88;;;1.90;;
57832;SDS011;43667;53.036;6.740;2022-10-16T07:13:09;6.35;;;2.20;;
57832;SDS011;43667;53.036;6.740;2022-10-16T07:15:38;5.50;;;1.90;;
57832;SDS011;43667;53.036;6.740;2022-10-16T07:18:03;6.25;;;1.70;;
57832;SDS011;43667;53.036;6.740;2022-10-16T07:20:29;6.75;;;1.90;;
57832;SDS011;43667;53.036;6.740;2022-10-16T07:22:54;6.75;;;1.92;;
57832;SDS011;43667;53.036;6.740;2022-10-16T07:25:20;4.95;;;2.13;;
57832;SDS011;43667;53.036;6.740;2022-10-16T07:27:45;3.97;;;1.48;;
57832;SDS011;43667;53.036;6.740;2022-10-16T07:30:11;6.45;;;1.90;;
57832;SDS011;43667;53.036;6.740;2022-10-16T07:32:37;4.78;;;1.48;;
57832;SDS011;43667;53.036;6.740;2022-10-16T07:35:03;5.43;;;1.65;;
57832;SDS011;43667;53.036;6.740;2022-10-16T07:37:29;8.70;;;1.63;;
57832;SDS011;43667;53.036;6.740;2022-10-16T07:39:54;6.15;;;1.83;;
57832;SDS011;43667;53.036;6.740;2022-10-16T07:42:20;7.82;;;2.28;;
57832;SDS011;43667;53.036;6.740;2022-10-16T07:44:45;11.13;;;2.63;;
57832;SDS011;43667;53.036;6.740;2022-10-16T07:47:11;5.20;;;1.52;;
57832;SDS011;43667;53.036;6.740;2022-10-16T07:49:37;7.15;;;2.03;;
57832;SDS011;43667;53.036;6.740;2022-10-16T07:52:02;7.03;;;1.70;;
57832;SDS011;43667;53.036;6.740;2022-10-16T07:54:28;3.90;;;1.33;;
57832;SDS011;43667;53.036;6.740;2022-10-16T07:56:53;5.50;;;1.50;;
57832;SDS011;43667;53.036;6.740;2022-10-16T07:59:19;8.90;;;1.80;;
57832;SDS011;43667;53.036;6.740;2022-10-16T08:01:44;8.05;;;2.05;;
57832;SDS011;43667;53.036;6.740;2022-10-16T08:04:10;6.18;;;1.40;;
57832;SDS011;43667;53.036;6.740;2022-10-16T08:06:37;4.60;;;1.38;;
57832;SDS011;43667;53.036;6.740;2022-10-16T08:09:04;4.10;;;1.50;;
57832;SDS011;43667;53.036;6.740;2022-10-16T08:11:30;5.43;;;1.50;;
57832;SDS011;43667;53.036;6.740;2022-10-16T08:13:55;4.88;;;1.50;;
57832;SDS011;43667;53.036;6.740;2022-10-16T08:16:21;9.27;;;2.03;;
57832;SDS011;43667;53.036;6.740;2022-10-16T08:18:47;5.30;;;1.60;;
57832;SDS011;43667;53.036;6.740;2022-10-16T08:21:16;3.85;;;1.20;;
57832;SDS011;43667;53.036;6.740;2022-10-16T08:23:44;4.65;;;1.25;;
57832;SDS011;43667;53.036;6.740;2022-10-16T08:26:10;7.00;;;2.03;;
57832;SDS011;43667;53.036;6.740;2022-10-16T08:28:36;4.00;;;1.20;;
57832;SDS011;43667;53.036;6.740;2022-10-16T08:31:06;4.65;;;1.13;;
57832;SDS011;43667;53.036;6.740;2022-10-16T08:33:37;5.80;;;1.13;;
57832;SDS011;43667;53.036;6.740;2022-10-16T08:36:04;4.65;;;1.13;;
57832;SDS011;43667;53.036;6.740;2022-10-16T08:38:30;7.13;;;0.93;;
57832;SDS011;43667;53.036;6.740;2022-10-16T08:41:50;6.22;;;1.27;;
57832;SDS011;43667;53.036;6.740;2022-10-16T08:43:43;5.15;;;1.25;;
57832;SDS011;43667;53.036;6.740;2022-10-16T08:49:21;3.22;;;0.90;;
57832;SDS011;43667;53.036;6.740;2022-10-16T08:51:49;3.85;;;0.73;;
57832;SDS011;43667;53.036;6.740;2022-10-16T08:56:55;4.70;;;1.00;;
57832;SDS011;43667;53.036;6.740;2022-10-16T08:59:22;5.00;;;0.98;;
57832;SDS011;43667;53.036;6.740;2022-10-16T09:01:49;7.13;;;0.95;;
57832;SDS011;43667;53.036;6.740;2022-10-16T09:04:30;6.85;;;1.23;;
57832;SDS011;43667;53.036;6.740;2022-10-16T09:07:18;5.03;;;0.85;;
57832;SDS011;43667;53.036;6.740;2022-10-16T09:13:00;5.30;;;1.17;;
57832;SDS011;43667;53.036;6.740;2022-10-16T09:15:55;6.18;;;1.30;;
57832;SDS011;43667;53.036;6.740;2022-10-16T09:19:05;5.68;;;1.35;;
57832;SDS011;43667;53.036;6.740;2022-10-16T09:21:35;4.38;;;1.20;;
57832;SDS011;43667;53.036;6.740;2022-10-16T09:24:10;7.78;;;1.15;;
57832;SDS011;43667;53.036;6.740;2022-10-16T09:26:39;4.88;;;1.25;;
57832;SDS011;43667;53.036;6.740;2022-10-16T09:29:05;5.20;;;1.02;;
57832;SDS011;43667;53.036;6.740;2022-10-16T09:31:30;6.38;;;1.27;;
57832;SDS011;43667;53.036;6.740;2022-10-16T09:33:59;6.93;;;1.13;;
57832;SDS011;43667;53.036;6.740;2022-10-16T09:36:33;6.70;;;1.33;;
57832;SDS011;43667;53.036;6.740;2022-10-16T09:39:08;7.75;;;1.70;;
57832;SDS011;43667;53.036;6.740;2022-10-16T09:41:41;11.02;;;1.50;;
57832;SDS011;43667;53.036;6.740;2022-10-16T09:44:23;11.27;;;1.65;;
57832;SDS011;43667;53.036;6.740;2022-10-16T09:47:02;13.70;;;1.77;;
57832;SDS011;43667;53.036;6.740;2022-10-16T09:49:49;6.43;;;1.60;;
57832;SDS011;43667;53.036;6.740;2022-10-16T09:52:20;8.45;;;1.85;;
57832;SDS011;43667;53.036;6.740;2022-10-16T09:54:56;9.40;;;1.63;;
57832;SDS011;43667;53.036;6.740;2022-10-16T09:57:22;8.35;;;1.30;;
57832;SDS011;43667;53.036;6.740;2022-10-16T09:59:49;9.98;;;1.48;;
57832;SDS011;43667;53.036;6.740;2022-10-16T10:02:29;8.48;;;1.80;;
57832;SDS011;43667;53.036;6.740;2022-10-16T10:04:58;14.77;;;1.92;;
57832;SDS011;43667;53.036;6.740;2022-10-16T10:07:25;7.32;;;1.20;;
57832;SDS011;43667;53.036;6.740;2022-10-16T10:09:52;10.52;;;1.73;;
57832;SDS011;43667;53.036;6.740;2022-10-16T10:12:26;9.70;;;1.60;;
57832;SDS011;43667;53.036;6.740;2022-10-16T10:14:55;9.18;;;1.80;;
57832;SDS011;43667;53.036;6.740;2022-10-16T10:17:26;8.98;;;1.75;;
57832;SDS011;43667;53.036;6.740;2022-10-16T10:19:59;11.75;;;1.95;;
57832;SDS011;43667;53.036;6.740;2022-10-16T10:33:53;11.45;;;2.13;;
57832;SDS011;43667;53.036;6.740;2022-10-16T10:36:34;9.32;;;1.52;;
57832;SDS011;43667;53.036;6.740;2022-10-16T10:41:44;13.13;;;1.67;;
57832;SDS011;43667;53.036;6.740;2022-10-16T10:47:43;10.27;;;1.70;;
57832;SDS011;43667;53.036;6.740;2022-10-16T10:50:52;9.18;;;1.50;;
57832;SDS011;43667;53.036;6.740;2022-10-16T10:53:38;8.68;;;1.48;;
57832;SDS011;43667;53.036;6.740;2022-10-16T10:56:26;10.25;;;1.60;;
57832;SDS011;43667;53.036;6.740;2022-10-16T11:02:00;12.48;;;2.10;;
57832;SDS011;43667;53.036;6.740;2022-10-16T11:04:34;12.65;;;2.30;;
57832;SDS011;43667;53.036;6.740;2022-10-16T11:07:16;10.32;;;1.70;;
57832;SDS011;43667;53.036;6.740;2022-10-16T11:09:49;10.30;;;1.40;;
57832;SDS011;43667;53.036;6.740;2022-10-16T11:12:20;12.68;;;2.05;;
57832;SDS011;43667;53.036;6.740;2022-10-16T11:14:58;10.52;;;1.73;;
57832;SDS011;43667;53.036;6.740;2022-10-16T11:17:38;11.35;;;1.83;;
57832;SDS011;43667;53.036;6.740;2022-10-16T11:25:22;12.15;;;2.13;;
57832;SDS011;43667;53.036;6.740;2022-10-16T11:30:40;7.72;;;1.50;;
57832;SDS011;43667;53.036;6.740;2022-10-16T11:36:04;9.77;;;1.83;;
57832;SDS011;43667;53.036;6.740;2022-10-16T11:38:40;8.77;;;1.75;;
57832;SDS011;43667;53.036;6.740;2022-10-16T11:44:12;11.02;;;2.08;;
57832;SDS011;43667;53.036;6.740;2022-10-16T11:47:22;7.13;;;1.63;;
57832;SDS011;43667;53.036;6.740;2022-10-16T11:49:53;14.68;;;2.33;;
57832;SDS011;43667;53.036;6.740;2022-10-16T11:52:40;12.23;;;2.05;;
57832;SDS011;43667;53.036;6.740;2022-10-16T11:55:18;9.80;;;2.15;;
57832;SDS011;43667;53.036;6.740;2022-10-16T11:57:54;10.45;;;2.05;;
57832;SDS011;43667;53.036;6.740;2022-10-16T12:00:26;10.20;;;1.65;;
57832;SDS011;43667;53.036;6.740;2022-10-16T12:03:10;12.15;;;1.33;;
57832;SDS011;43667;53.036;6.740;2022-10-16T12:08:33;9.40;;;1.80;;
57832;SDS011;43667;53.036;6.740;2022-10-16T12:11:07;12.25;;;1.83;;
57832;SDS011;43667;53.036;6.740;2022-10-16T12:13:46;10.13;;;1.65;;
57832;SDS011;43667;53.036;6.740;2022-10-16T12:18:42;13.45;;;2.20;;
57832;SDS011;43667;53.036;6.740;2022-10-16T12:21:10;13.32;;;2.53;;
57832;SDS011;43667;53.036;6.740;2022-10-16T12:23:50;14.07;;;2.17;;
57832;SDS011;43667;53.036;6.740;2022-10-16T12:26:31;14.15;;;2.78;;
57832;SDS011;43667;53.036;6.740;2022-10-16T12:29:19;11.82;;;2.28;;
57832;SDS011;43667;53.036;6.740;2022-10-16T12:32:04;12.05;;;1.70;;
57832;SDS011;43667;53.036;6.740;2022-10-16T12:34:44;10.48;;;2.00;;
57832;SDS011;43667;53.036;6.740;2022-10-16T12:39:48;9.82;;;1.33;;
57832;SDS011;43667;53.036;6.740;2022-10-16T12:42:33;11.23;;;1.98;;
57832;SDS011;43667;53.036;6.740;2022-10-16T12:45:00;9.05;;;1.67;;
57832;SDS011;43667;53.036;6.740;2022-10-16T12:49:55;13.25;;;1.95;;
57832;SDS011;43667;53.036;6.740;2022-10-16T12:52:37;10.52;;;1.90;;
57832;SDS011;43667;53.036;6.740;2022-10-16T12:57:36;10.60;;;1.98;;
57832;SDS011;43667;53.036;6.740;2022-10-16T13:03:01;10.40;;;1.55;;
57832;SDS011;43667;53.036;6.740;2022-10-16T13:05:58;14.77;;;1.85;;
57832;SDS011;43667;53.036;6.740;2022-10-16T13:08:39;14.10;;;2.05;;
57832;SDS011;43667;53.036;6.740;2022-10-16T13:19:31;9.18;;;1.52;;
57832;SDS011;43667;53.036;6.740;2022-10-16T13:22:30;8.43;;;1.67;;
57832;SDS011;43667;53.036;6.740;2022-10-16T13:30:53;11.82;;;2.22;;
57832;SDS011;43667;53.036;6.740;2022-10-16T13:33:37;13.48;;;1.90;;
57832;SDS011;43667;53.036;6.740;2022-10-16T13:36:05;11.02;;;2.38;;
57832;SDS011;43667;53.036;6.740;2022-10-16T13:38:32;9.88;;;1.77;;
57832;SDS011;43667;53.036;6.740;2022-10-16T13:41:03;9.63;;;1.90;;
57832;SDS011;43667;53.036;6.740;2022-10-16T13:43:47;12.13;;;1.60;;
57832;SDS011;43667;53.036;6.740;2022-10-16T13:46:23;9.23;;;1.80;;
57832;SDS011;43667;53.036;6.740;2022-10-16T13:48:56;12.90;;;2.22;;
57832;SDS011;43667;53.036;6.740;2022-10-16T13:51:26;14.80;;;2.17;;
57832;SDS011;43667;53.036;6.740;2022-10-16T13:53:54;10.93;;;1.30;;
57832;SDS011;43667;53.036;6.740;2022-10-16T13:56:21;6.55;;;1.40;;
57832;SDS011;43667;53.036;6.740;2022-10-16T13:58:58;10.25;;;2.10;;
57832;SDS011;43667;53.036;6.740;2022-10-16T14:01:28;10.18;;;1.67;;
57832;SDS011;43667;53.036;6.740;2022-10-16T14:04:04;12.73;;;1.50;;
57832;SDS011;43667;53.036;6.740;2022-10-16T14:06:31;9.55;;;1.90;;
57832;SDS011;43667;53.036;6.740;2022-10-16T14:09:07;8.05;;;1.50;;
57832;SDS011;43667;53.036;6.740;2022-10-16T14:11:44;10.40;;;1.58;;
57832;SDS011;43667;53.036;6.740;2022-10-16T14:14:22;10.50;;;2.00;;
57832;SDS011;43667;53.036;6.740;2022-10-16T14:17:15;9.40;;;1.25;;
57832;SDS011;43667;53.036;6.740;2022-10-16T14:19:45;10.88;;;1.77;;
57832;SDS011;43667;53.036;6.740;2022-10-16T14:22:30;15.02;;;2.45;;
57832;SDS011;43667;53.036;6.740;2022-10-16T14:24:58;11.20;;;2.40;;
57832;SDS011;43667;53.036;6.740;2022-10-16T14:27:27;14.63;;;1.90;;
57832;SDS011;43667;53.036;6.740;2022-10-16T14:30:15;9.93;;;1.90;;
57832;SDS011;43667;53.036;6.740;2022-10-16T14:32:52;13.85;;;1.98;;
57832;SDS011;43667;53.036;6.740;2022-10-16T14:35:27;11.15;;;1.60;;
57832;SDS011;43667;53.036;6.740;2022-10-16T14:37:58;12.20;;;2.55;;
57832;SDS011;43667;53.036;6.740;2022-10-16T14:40:29;9.43;;;1.40;;
57832;SDS011;43667;53.036;6.740;2022-10-16T14:42:57;12.18;;;2.53;;
57832;SDS011;43667;53.036;6.740;2022-10-16T14:45:27;13.27;;;2.17;;
57832;SDS011;43667;53.036;6.740;2022-10-16T14:47:58;11.23;;;2.15;;
57832;SDS011;43667;53.036;6.740;2022-10-16T14:50:26;8.43;;;1.90;;
57832;SDS011;43667;53.036;6.740;2022-10-16T14:52:52;12.60;;;2.47;;
57832;SDS011;43667;53.036;6.740;2022-10-16T14:55:18;11.25;;;1.67;;
57832;SDS011;43667;53.036;6.740;2022-10-16T14:57:44;10.23;;;1.60;;
57832;SDS011;43667;53.036;6.740;2022-10-16T15:00:15;13.00;;;2.10;;
57832;SDS011;43667;53.036;6.740;2022-10-16T15:02:46;10.98;;;2.33;;
57832;SDS011;43667;53.036;6.740;2022-10-16T15:05:20;12.60;;;2.03;;
57832;SDS011;43667;53.036;6.740;2022-10-16T15:07:47;13.25;;;2.20;;
57832;SDS011;43667;53.036;6.740;2022-10-16T15:10:14;13.50;;;1.83;;
57832;SDS011;43667;53.036;6.740;2022-10-16T15:12:41;16.95;;;2.15;;
57832;SDS011;43667;53.036;6.740;2022-10-16T15:15:49;13.20;;;2.13;;
57832;SDS011;43667;53.036;6.740;2022-10-16T15:18:04;8.63;;;1.70;;
57832;SDS011;43667;53.036;6.740;2022-10-16T15:20:31;10.70;;;1.83;;
57832;SDS011;43667;53.036;6.740;2022-10-16T15:23:02;11.75;;;1.70;;
57832;SDS011;43667;53.036;6.740;2022-10-16T15:27:59;14.82;;;2.25;;
57832;SDS011;43667;53.036;6.740;2022-10-16T15:30:26;14.00;;;2.10;;
57832;SDS011;43667;53.036;6.740;2022-10-16T15:32:52;16.33;;;1.77;;
57832;SDS011;43667;53.036;6.740;2022-10-16T15:35:18;13.07;;;2.75;;
57832;SDS011;43667;53.036;6.740;2022-10-16T15:37:45;15.07;;;2.25;;
57832;SDS011;43667;53.036;6.740;2022-10-16T15:40:12;15.18;;;2.25;;
57832;SDS011;43667;53.036;6.740;2022-10-16T15:42:37;10.60;;;1.75;;
57832;SDS011;43667;53.036;6.740;2022-10-16T15:45:03;10.80;;;1.70;;
57832;SDS011;43667;53.036;6.740;2022-10-16T15:47:29;14.57;;;2.13;;
57832;SDS011;43667;53.036;6.740;2022-10-16T15:49:55;9.23;;;1.75;;
57832;SDS011;43667;53.036;6.740;2022-10-16T15:52:20;15.90;;;1.88;;
57832;SDS011;43667;53.036;6.740;2022-10-16T15:54:46;10.45;;;1.63;;
57832;SDS011;43667;53.036;6.740;2022-10-16T15:57:11;12.75;;;2.30;;
57832;SDS011;43667;53.036;6.740;2022-10-16T15:59:37;10.90;;;1.83;;
57832;SDS011;43667;53.036;6.740;2022-10-16T16:02:02;12.60;;;1.70;;
57832;SDS011;43667;53.036;6.740;2022-10-16T16:04:31;16.00;;;1.88;;
57832;SDS011;43667;53.036;6.740;2022-10-16T16:06:57;13.93;;;2.38;;
57832;SDS011;43667;53.036;6.740;2022-10-16T16:09:22;12.70;;;1.85;;
57832;SDS011;43667;53.036;6.740;2022-10-16T16:11:48;13.45;;;2.30;;
57832;SDS011;43667;53.036;6.740;2022-10-16T16:14:16;17.88;;;2.10;;
57832;SDS011;43667;53.036;6.740;2022-10-16T16:16:42;16.00;;;2.60;;
57832;SDS011;43667;53.036;6.740;2022-10-16T16:19:08;14.40;;;2.10;;
57832;SDS011;43667;53.036;6.740;2022-10-16T16:21:34;10.18;;;1.85;;
57832;SDS011;43667;53.036;6.740;2022-10-16T16:24:00;10.32;;;2.33;;
57832;SDS011;43667;53.036;6.740;2022-10-16T16:26:27;16.60;;;1.88;;
57832;SDS011;43667;53.036;6.740;2022-10-16T16:28:58;10.57;;;1.80;;
57832;SDS011;43667;53.036;6.740;2022-10-16T16:31:25;10.63;;;1.80;;